createdAt,value
2022-12-18T00:00:21.121Z,81.21
2022-12-18T00:02:51.630Z,81.28
2022-12-18T00:05:22.113Z,81.28
2022-12-18T00:07:52.492Z,81.27
2022-12-18T00:10:22.920Z,81.10
2022-12-18T00:12:53.420Z,80.84
2022-12-18T00:15:23.973Z,81.16
2022-12-18T00:17:54.624Z,81.29
2022-12-18T00:20:26.578Z,81.21
2022-12-18T00:22:57.457Z,81.51
2022-12-18T00:25:28.038Z,81.28
2022-12-18T00:27:58.489Z,81.34
2022-12-18T00:30:30.281Z,81.32
2022-12-18T00:33:01.195Z,81.33
2022-12-18T00:35:31.616Z,81.21
2022-12-18T00:38:02.012Z,81.17
2022-12-18T00:40:32.451Z,81.25
2022-12-18T00:43:03.038Z,81.20
2022-12-18T00:45:34.578Z,81.31
2022-12-18T00:48:07.229Z,81.25
2022-12-18T00:50:37.940Z,81.33
2022-12-18T00:53:08.815Z,81.21
2022-12-18T00:55:40.882Z,81.27
2022-12-18T00:58:12.666Z,81.29
2022-12-18T01:00:44.283Z,81.39
2022-12-18T01:03:16.149Z,81.50
2022-12-18T01:05:47.851Z,81.73
2022-12-18T01:08:18.297Z,81.86
2022-12-18T01:10:48.779Z,81.82
2022-12-18T01:13:19.621Z,81.55
2022-12-18T01:15:53.350Z,81.59
2022-12-18T01:18:23.768Z,81.69
2022-12-18T01:20:55.207Z,81.78
2022-12-18T01:23:25.629Z,81.50
2022-12-18T01:25:56.516Z,81.12
2022-12-18T01:28:26.948Z,81.04
2022-12-18T01:30:57.320Z,80.89
2022-12-18T01:33:27.756Z,80.84
2022-12-18T01:35:58.231Z,81.41
2022-12-18T01:38:28.612Z,81.42
2022-12-18T01:41:01.877Z,81.32
2022-12-18T01:43:53.434Z,81.19
2022-12-18T01:46:26.009Z,81.27
2022-12-18T01:49:02.066Z,81.51
2022-12-18T01:51:33.436Z,81.64
2022-12-18T01:54:04.620Z,81.59
2022-12-18T01:56:35.020Z,81.24
2022-12-18T01:59:08.006Z,80.97
2022-12-18T02:01:38.870Z,80.84
2022-12-18T02:04:24.223Z,80.61
2022-12-18T02:07:00.178Z,80.89
2022-12-18T02:09:33.879Z,81.29
2022-12-18T02:12:11.121Z,81.31
2022-12-18T02:14:42.493Z,81.28
2022-12-18T02:17:16.098Z,81.33
2022-12-18T02:20:00.602Z,81.33
2022-12-18T02:22:39.724Z,80.95
2022-12-18T02:25:21.456Z,80.48
2022-12-18T02:27:52.754Z,80.34
2022-12-18T02:30:25.090Z,80.52
2022-12-18T02:32:56.672Z,80.65
2022-12-18T02:35:28.993Z,80.96
2022-12-18T02:38:01.389Z,81.28
2022-12-18T02:40:33.890Z,81.28
2022-12-18T02:43:11.015Z,80.99
2022-12-18T02:45:50.297Z,81.11
2022-12-18T02:48:25.090Z,81.42
2022-12-18T02:51:02.384Z,81.78
2022-12-18T02:53:38.848Z,81.33
2022-12-18T02:56:14.063Z,81.50
2022-12-18T02:58:49.707Z,81.26
2022-12-18T03:01:35.482Z,81.44
2022-12-18T03:04:09.248Z,81.64
2022-12-18T03:06:43.825Z,82.03
2022-12-18T03:09:19.941Z,82.14
2022-12-18T03:12:12.251Z,82.03
2022-12-18T03:14:45.312Z,81.54
2022-12-18T03:17:19.752Z,81.62
2022-12-18T03:19:50.791Z,81.57
2022-12-18T03:22:21.655Z,81.28
2022-12-18T03:24:54.473Z,81.23
2022-12-18T03:27:25.758Z,81.28
2022-12-18T03:30:08.102Z,81.46
2022-12-18T03:32:43.497Z,81.92
2022-12-18T03:35:17.226Z,81.93
2022-12-18T03:37:48.000Z,82.01
2022-12-18T03:40:18.719Z,81.93
2022-12-18T03:42:52.616Z,81.61
2022-12-18T03:45:26.139Z,81.40
2022-12-18T03:48:03.037Z,81.43
2022-12-18T03:50:42.267Z,81.31
2022-12-18T03:53:24.108Z,81.22
2022-12-18T03:55:54.992Z,81.10
2022-12-18T03:58:27.763Z,80.92
2022-12-18T04:01:07.272Z,80.76
2022-12-18T04:03:40.281Z,80.86
2022-12-18T04:06:11.908Z,80.73
2022-12-18T04:08:44.493Z,80.64
2022-12-18T04:11:16.562Z,80.79
2022-12-18T04:13:48.534Z,81.04
2022-12-18T04:16:23.491Z,80.92
2022-12-18T04:18:56.564Z,81.00
2022-12-18T04:21:28.946Z,81.03
2022-12-18T04:23:59.397Z,81.11
2022-12-18T04:26:30.024Z,80.90
2022-12-18T04:29:09.994Z,80.84
2022-12-18T04:31:41.121Z,80.77
2022-12-18T04:34:11.711Z,81.00
2022-12-18T04:36:46.916Z,81.02
2022-12-18T04:39:19.153Z,80.75
2022-12-18T04:41:49.843Z,80.64
2022-12-18T04:44:20.278Z,80.97
2022-12-18T04:46:50.764Z,81.44
2022-12-18T04:49:21.440Z,81.70
2022-12-18T04:51:52.550Z,81.43
2022-12-18T04:54:23.475Z,81.56
2022-12-18T04:56:54.093Z,82.02
2022-12-18T04:59:25.688Z,81.89
2022-12-18T05:01:56.148Z,82.66
2022-12-18T05:04:26.640Z,82.30
2022-12-18T05:06:57.062Z,82.29
2022-12-18T05:09:27.491Z,82.15
2022-12-18T05:11:58.025Z,82.15
2022-12-18T05:14:30.337Z,82.28
2022-12-18T05:17:01.336Z,81.86
2022-12-18T05:19:31.983Z,81.57
2022-12-18T05:22:02.711Z,82.16
2022-12-18T05:24:33.082Z,81.97
2022-12-18T05:27:03.528Z,81.94
2022-12-18T05:29:33.874Z,81.90
2022-12-18T05:32:04.419Z,81.56
2022-12-18T05:34:35.421Z,81.66
2022-12-18T05:37:05.854Z,82.35
2022-12-18T05:39:36.202Z,82.36
2022-12-18T05:42:06.689Z,81.79
2022-12-18T05:44:37.107Z,81.49
2022-12-18T05:47:07.848Z,81.22
2022-12-18T05:49:38.232Z,81.29
2022-12-18T05:52:08.855Z,81.01
2022-12-18T05:54:39.886Z,80.98
2022-12-18T05:57:10.237Z,81.09
2022-12-18T05:59:40.824Z,81.28
2022-12-18T06:02:11.309Z,81.02
2022-12-18T06:04:41.870Z,80.86
2022-12-18T06:07:12.302Z,80.57
2022-12-18T06:09:42.682Z,80.15
2022-12-18T06:12:13.077Z,80.01
2022-12-18T06:14:43.528Z,80.47
2022-12-18T06:17:13.934Z,80.54
2022-12-18T06:19:44.290Z,80.14
2022-12-18T06:22:14.671Z,80.17
2022-12-18T06:24:45.180Z,80.22
2022-12-18T06:27:15.701Z,80.07
2022-12-18T06:29:46.563Z,79.97
2022-12-18T06:32:17.630Z,80.00
2022-12-18T06:34:47.962Z,80.07
2022-12-18T06:37:19.323Z,80.27
2022-12-18T06:39:49.837Z,80.10
2022-12-18T06:42:20.316Z,79.74
2022-12-18T06:44:51.568Z,79.64
2022-12-18T06:47:23.412Z,79.49
2022-12-18T06:49:53.775Z,79.37
2022-12-18T06:52:24.696Z,79.12
2022-12-18T06:54:55.100Z,79.53
2022-12-18T06:57:25.878Z,79.64
2022-12-18T06:59:56.341Z,79.47
2022-12-18T07:02:26.818Z,79.25
2022-12-18T07:04:57.265Z,79.07
2022-12-18T07:07:27.669Z,79.10
2022-12-18T07:09:58.042Z,78.92
2022-12-18T07:12:30.529Z,79.00
2022-12-18T07:15:02.683Z,78.89
2022-12-18T07:17:36.445Z,79.08
2022-12-18T07:20:10.530Z,79.03
2022-12-18T07:22:42.796Z,78.80
2022-12-18T07:25:15.421Z,78.73
2022-12-18T07:27:48.467Z,78.74
2022-12-18T07:30:25.842Z,78.66
2022-12-18T07:32:58.431Z,78.59
2022-12-18T07:35:31.426Z,78.46
2022-12-18T07:38:03.969Z,78.31
2022-12-18T07:40:38.549Z,78.11
2022-12-18T07:43:10.473Z,77.56
2022-12-18T07:45:42.823Z,77.18
2022-12-18T07:48:15.484Z,76.78
2022-12-18T07:50:46.824Z,75.69
2022-12-18T07:53:18.358Z,75.49
2022-12-18T07:56:18.399Z,75.01
2022-12-18T07:58:45.491Z,74.56
2022-12-18T08:01:19.359Z,74.56
2022-12-18T08:03:52.733Z,74.30
2022-12-18T08:06:24.995Z,73.81
2022-12-18T08:08:58.524Z,73.65
2022-12-18T08:11:30.785Z,73.54
2022-12-18T08:19:29.509Z,73.03
2022-12-18T08:21:59.995Z,72.43
2022-12-18T08:24:30.746Z,72.53
2022-12-18T08:29:51.731Z,71.89
2022-12-18T08:32:22.198Z,71.55
2022-12-18T08:34:52.877Z,71.29
2022-12-18T08:37:23.310Z,70.84
2022-12-18T08:39:53.699Z,70.84
2022-12-18T08:42:42.489Z,71.16
2022-12-18T08:45:14.102Z,70.52
2022-12-18T08:47:44.674Z,69.74
2022-12-18T08:50:16.138Z,69.16
2022-12-18T08:52:46.922Z,69.29
2022-12-18T08:55:18.257Z,69.10
2022-12-18T08:57:51.365Z,68.95
2022-12-18T09:00:22.248Z,68.98
2022-12-18T09:02:52.794Z,68.78
2022-12-18T09:05:23.491Z,68.00
2022-12-18T09:07:54.414Z,67.49
2022-12-18T09:10:24.818Z,66.53
2022-12-18T09:12:57.021Z,65.15
2022-12-18T09:15:27.603Z,64.04
2022-12-18T09:17:58.018Z,63.76
2022-12-18T09:20:29.231Z,62.80
2022-12-18T09:23:00.635Z,61.53
2022-12-18T09:25:33.924Z,61.03
2022-12-18T09:28:04.948Z,60.70
2022-12-18T09:30:35.747Z,61.04
2022-12-18T09:33:09.228Z,60.75
2022-12-18T09:35:41.187Z,60.38
2022-12-18T09:38:13.802Z,58.94
2022-12-18T09:40:53.895Z,58.30
2022-12-18T09:43:29.145Z,57.35
2022-12-18T09:46:06.356Z,55.78
2022-12-18T09:48:40.906Z,55.62
2022-12-18T09:51:17.208Z,55.51
2022-12-18T09:53:57.921Z,55.93
2022-12-18T09:56:40.957Z,55.87
2022-12-18T09:59:20.522Z,56.42
2022-12-18T10:01:51.176Z,56.38
2022-12-18T10:04:23.100Z,56.39
2022-12-18T10:07:02.045Z,57.21
2022-12-18T10:09:42.198Z,57.15
2022-12-18T10:12:19.283Z,56.70
2022-12-18T10:14:53.811Z,55.36
2022-12-18T10:17:28.710Z,54.76
2022-12-18T10:20:03.092Z,53.82
2022-12-18T10:22:49.875Z,52.51
2022-12-18T10:25:25.893Z,51.15
2022-12-18T10:27:59.758Z,50.82
2022-12-18T10:30:30.350Z,51.20
2022-12-18T10:33:10.596Z,51.54
2022-12-18T10:35:46.038Z,51.77
2022-12-18T10:38:33.472Z,52.29
2022-12-18T10:41:15.514Z,53.18
2022-12-18T10:43:46.402Z,53.48
2022-12-18T10:46:32.853Z,54.64
2022-12-18T10:49:03.407Z,55.37
2022-12-18T10:51:35.102Z,55.92
2022-12-18T10:54:08.557Z,57.17
2022-12-18T10:56:41.527Z,58.71
2022-12-18T10:59:15.345Z,59.69
2022-12-18T11:01:55.118Z,60.33
2022-12-18T11:04:36.303Z,61.24
2022-12-18T11:07:22.180Z,61.83
2022-12-18T11:10:04.924Z,62.68
2022-12-18T11:12:35.469Z,63.44
2022-12-18T11:15:06.544Z,63.83
2022-12-18T11:17:38.312Z,64.31
2022-12-18T11:20:28.394Z,64.62
2022-12-18T11:23:02.830Z,64.69
2022-12-18T11:25:36.324Z,65.25
2022-12-18T11:28:10.940Z,65.67
2022-12-18T11:30:41.318Z,65.94
2022-12-18T11:33:15.401Z,66.53
2022-12-18T11:35:52.138Z,67.03
2022-12-18T11:38:26.215Z,67.11
2022-12-18T11:41:00.491Z,67.64
2022-12-18T11:43:33.863Z,67.96
2022-12-18T11:46:06.755Z,68.03
2022-12-18T11:48:36.230Z,67.72
2022-12-18T11:51:11.174Z,67.68
2022-12-18T11:53:41.970Z,67.44
2022-12-18T11:56:32.242Z,67.33
2022-12-18T11:59:11.242Z,67.51
2022-12-18T12:01:51.183Z,67.62
2022-12-18T12:04:45.299Z,67.67
2022-12-18T12:07:25.345Z,67.76
2022-12-18T12:10:02.921Z,67.78
2022-12-18T12:12:48.863Z,67.92
2022-12-18T12:15:28.247Z,68.51
2022-12-18T12:18:08.175Z,68.78
2022-12-18T12:20:47.313Z,69.04
2022-12-18T12:23:27.907Z,69.28
2022-12-18T12:26:02.112Z,69.61
2022-12-18T12:28:46.319Z,69.70
2022-12-18T12:31:24.294Z,69.16
2022-12-18T12:34:01.848Z,69.20
2022-12-18T12:36:39.577Z,69.26
2022-12-18T12:39:16.148Z,69.47
2022-12-18T12:42:06.332Z,69.63
2022-12-18T12:44:41.677Z,69.86
2022-12-18T12:47:17.691Z,70.12
2022-12-18T12:49:50.440Z,70.54
2022-12-18T12:52:30.332Z,70.50
2022-12-18T12:55:01.924Z,70.58
2022-12-18T12:57:35.605Z,70.98
2022-12-18T13:00:10.631Z,71.38
2022-12-18T13:02:47.764Z,71.32
2022-12-18T13:05:23.650Z,71.45
2022-12-18T13:07:58.581Z,71.36
2022-12-18T13:10:40.663Z,71.39
2022-12-18T13:13:13.339Z,71.49
2022-12-18T13:15:47.091Z,71.70
2022-12-18T13:18:20.560Z,72.07
2022-12-18T13:21:01.191Z,71.90
2022-12-18T13:23:35.553Z,72.19
2022-12-18T13:26:33.934Z,72.00
2022-12-18T13:29:05.543Z,72.07
2022-12-18T13:32:02.296Z,72.30
2022-12-18T13:34:34.469Z,72.30
2022-12-18T13:37:45.148Z,72.35
2022-12-18T13:40:56.208Z,72.60
2022-12-18T13:43:35.070Z,72.72
2022-12-18T13:46:20.520Z,72.84
2022-12-18T13:48:58.730Z,72.96
2022-12-18T13:51:30.199Z,73.13
2022-12-18T13:54:02.821Z,73.40
2022-12-18T13:56:35.413Z,73.61
2022-12-18T13:59:25.107Z,73.79
2022-12-18T14:01:57.825Z,73.84
2022-12-18T14:04:30.209Z,73.94
2022-12-18T14:07:03.705Z,74.21
2022-12-18T14:09:38.890Z,74.34
2022-12-18T14:12:37.369Z,74.38
2022-12-18T14:15:11.761Z,74.53
2022-12-18T14:17:42.612Z,74.83
2022-12-18T14:20:18.283Z,75.05
2022-12-18T14:22:50.712Z,75.12
2022-12-18T14:25:23.567Z,75.21
2022-12-18T14:28:05.187Z,75.32
2022-12-18T14:30:38.940Z,75.36
2022-12-18T14:33:13.141Z,75.37
2022-12-18T14:35:45.397Z,75.61
2022-12-18T14:38:25.711Z,75.68
2022-12-18T14:41:00.841Z,75.78
2022-12-18T14:43:34.471Z,76.05
2022-12-18T14:46:06.101Z,76.14
2022-12-18T14:48:41.920Z,76.13
2022-12-18T14:51:19.699Z,76.34
2022-12-18T14:53:55.685Z,76.45
2022-12-18T14:56:28.449Z,76.34
2022-12-18T14:59:00.256Z,76.66
2022-12-18T15:01:34.301Z,76.61
2022-12-18T15:04:27.196Z,76.94
2022-12-18T15:07:11.289Z,76.97
2022-12-18T15:09:49.623Z,77.19
2022-12-18T15:12:33.967Z,77.22
2022-12-18T15:15:09.233Z,77.40
2022-12-18T15:17:46.024Z,77.33
2022-12-18T15:20:22.938Z,77.33
2022-12-18T15:22:57.092Z,77.56
2022-12-18T15:25:35.464Z,77.82
2022-12-18T15:28:26.684Z,77.82
2022-12-18T15:31:29.553Z,78.03
2022-12-18T15:34:18.410Z,77.97
2022-12-18T15:37:02.081Z,78.07
2022-12-18T15:39:34.472Z,78.12
2022-12-18T15:42:24.631Z,78.18
2022-12-18T15:44:56.547Z,78.17
2022-12-18T15:47:28.277Z,78.38
2022-12-18T15:50:04.158Z,78.51
2022-12-18T15:52:51.579Z,78.61
2022-12-18T15:55:42.326Z,78.58
2022-12-18T15:58:14.965Z,78.66
2022-12-18T16:00:46.776Z,78.76
2022-12-18T16:03:22.037Z,79.15
2022-12-18T16:06:18.114Z,79.02
2022-12-18T16:08:55.355Z,79.25
2022-12-18T16:11:43.015Z,79.08
2022-12-18T16:14:21.167Z,78.99
2022-12-18T16:16:54.974Z,78.93
2022-12-18T16:19:26.344Z,78.93
2022-12-18T16:21:59.592Z,78.71
2022-12-18T16:24:32.738Z,78.92
2022-12-18T16:27:06.837Z,78.76
2022-12-18T16:29:37.813Z,78.93
2022-12-18T16:32:27.341Z,79.12
2022-12-18T16:35:05.889Z,79.10
2022-12-18T16:37:40.498Z,79.11
2022-12-18T16:40:21.938Z,78.94
2022-12-18T16:42:54.313Z,79.00
2022-12-18T16:45:26.307Z,79.08
2022-12-18T16:47:58.018Z,79.00
2022-12-18T16:50:40.315Z,79.17
2022-12-18T16:53:11.711Z,79.17
2022-12-18T16:55:42.302Z,79.01
2022-12-18T16:58:13.466Z,79.21
2022-12-18T17:00:43.838Z,79.12
2022-12-18T17:03:14.416Z,79.02
2022-12-18T17:05:48.832Z,78.98
2022-12-18T17:08:23.529Z,79.08
2022-12-18T17:10:57.013Z,79.00
2022-12-18T17:13:28.974Z,79.18
2022-12-18T17:16:06.305Z,79.29
2022-12-18T17:18:37.003Z,79.19
2022-12-18T17:21:09.505Z,79.23
2022-12-18T17:23:40.690Z,79.22
2022-12-18T17:26:11.810Z,79.37
2022-12-18T17:28:42.729Z,79.29
2022-12-18T17:31:19.063Z,79.34
2022-12-18T17:33:49.886Z,79.34
2022-12-18T17:36:20.395Z,79.32
2022-12-18T17:38:54.768Z,79.25
2022-12-18T17:41:25.991Z,79.07
2022-12-18T17:43:57.549Z,79.13
2022-12-18T17:46:28.478Z,79.04
2022-12-18T17:48:59.100Z,79.04
2022-12-18T17:51:30.182Z,79.09
2022-12-18T17:54:00.676Z,78.99
2022-12-18T17:56:31.346Z,79.12
2022-12-18T17:59:01.764Z,79.11
2022-12-18T18:01:32.247Z,79.17
2022-12-18T18:04:04.431Z,79.08
2022-12-18T18:06:35.077Z,79.22
2022-12-18T18:09:16.158Z,78.98
2022-12-18T18:12:17.384Z,78.89
2022-12-18T18:14:50.567Z,79.07
2022-12-18T18:17:22.077Z,79.13
2022-12-18T18:19:52.465Z,79.23
2022-12-18T18:22:23.084Z,79.12
2022-12-18T18:24:55.030Z,79.00
2022-12-18T18:27:25.548Z,79.12
2022-12-18T18:29:57.322Z,79.07
2022-12-18T18:32:27.726Z,78.99
2022-12-18T18:34:58.274Z,78.84
2022-12-18T18:37:28.702Z,78.77
2022-12-18T18:39:59.075Z,78.80
2022-12-18T18:42:29.484Z,79.00
2022-12-18T18:44:59.919Z,78.87
2022-12-18T18:47:31.572Z,78.95
2022-12-18T18:50:01.967Z,78.98
2022-12-18T18:52:32.364Z,79.02
2022-12-18T18:55:25.248Z,78.84
2022-12-18T18:57:56.888Z,78.81
2022-12-18T19:00:27.532Z,78.80
2022-12-18T19:03:00.746Z,78.75
2022-12-18T19:05:33.431Z,78.57
2022-12-18T19:08:03.991Z,78.72
2022-12-18T19:10:34.434Z,78.75
2022-12-18T19:13:24.528Z,78.68
2022-12-18T19:15:56.671Z,78.64
2022-12-18T19:18:27.152Z,78.80
2022-12-18T19:21:02.450Z,78.87
2022-12-18T19:23:33.691Z,78.90
2022-12-18T19:26:26.977Z,78.80
2022-12-18T19:28:55.198Z,78.80
2022-12-18T19:31:30.405Z,78.69
2022-12-18T19:34:04.807Z,78.74
2022-12-18T19:36:36.135Z,78.82
2022-12-18T19:39:13.561Z,78.58
2022-12-18T19:41:44.699Z,78.54
2022-12-18T19:44:17.117Z,78.54
2022-12-18T19:46:48.313Z,78.47
2022-12-18T19:49:18.743Z,78.30
2022-12-18T19:51:49.925Z,78.35
2022-12-18T19:54:20.894Z,78.32
2022-12-18T19:56:52.851Z,78.28
2022-12-18T19:59:23.805Z,78.22
2022-12-18T20:01:54.481Z,78.35
2022-12-18T20:04:26.156Z,78.32
2022-12-18T20:06:57.262Z,78.17
2022-12-18T20:09:28.104Z,78.14
2022-12-18T20:11:59.240Z,78.16
2022-12-18T20:14:29.884Z,78.22
2022-12-18T20:17:00.491Z,78.25
2022-12-18T20:19:31.613Z,78.21
2022-12-18T20:22:04.364Z,78.26
2022-12-18T20:24:35.982Z,78.34
2022-12-18T20:27:10.993Z,78.39
2022-12-18T20:29:45.136Z,78.46
2022-12-18T20:32:16.137Z,78.47
2022-12-18T20:34:46.771Z,78.29
2022-12-18T20:37:18.057Z,78.26
2022-12-18T20:39:51.627Z,78.20
2022-12-18T20:42:22.454Z,78.23
2022-12-18T20:44:52.992Z,78.19
2022-12-18T20:47:23.516Z,78.31
2022-12-18T20:49:54.161Z,78.28
2022-12-18T20:52:28.504Z,78.29
2022-12-18T20:54:59.227Z,78.32
2022-12-18T20:57:32.600Z,78.42
2022-12-18T21:00:03.225Z,78.47
2022-12-18T21:02:33.858Z,78.56
2022-12-18T21:05:04.603Z,78.61
2022-12-18T21:07:35.039Z,78.59
2022-12-18T21:10:09.982Z,78.44
2022-12-18T21:12:50.864Z,78.33
2022-12-18T21:15:28.940Z,78.23
2022-12-18T21:18:00.077Z,78.17
2022-12-18T21:20:30.665Z,78.11
2022-12-18T21:23:12.051Z,77.97
2022-12-18T21:25:50.066Z,78.10
2022-12-18T21:28:26.451Z,77.95
2022-12-18T21:30:57.216Z,78.01
2022-12-18T21:33:28.157Z,77.94
2022-12-18T21:35:58.603Z,77.91
2022-12-18T21:38:30.251Z,77.80
2022-12-18T21:41:01.230Z,77.86
2022-12-18T21:43:49.216Z,77.92
2022-12-18T21:46:20.004Z,77.62
2022-12-18T21:48:50.411Z,77.62
2022-12-18T21:51:20.845Z,77.65
2022-12-18T21:53:51.330Z,77.51
2022-12-18T21:56:21.868Z,77.55
2022-12-18T21:58:56.749Z,77.54
2022-12-18T22:01:31.511Z,77.48
2022-12-18T22:04:08.334Z,77.43
2022-12-18T22:06:39.125Z,77.49
2022-12-18T22:09:09.974Z,77.45
2022-12-18T22:11:41.303Z,77.47
2022-12-18T22:14:14.191Z,77.45
2022-12-18T22:16:46.861Z,77.32
2022-12-18T22:19:19.453Z,77.39
2022-12-18T22:21:51.331Z,77.43
2022-12-18T22:24:24.591Z,77.40
2022-12-18T22:27:02.112Z,77.28
2022-12-18T22:29:52.070Z,77.36
2022-12-18T22:32:31.254Z,77.40
2022-12-18T22:35:08.302Z,77.35
2022-12-18T22:37:41.840Z,77.36
2022-12-18T22:40:25.469Z,77.23
2022-12-18T22:42:59.045Z,77.13
2022-12-18T22:45:30.177Z,77.00
2022-12-18T22:48:02.525Z,77.00
2022-12-18T22:50:35.546Z,77.19
2022-12-18T22:53:07.996Z,77.12
2022-12-18T22:55:40.822Z,77.23
2022-12-18T22:58:11.344Z,77.11
2022-12-18T23:00:44.323Z,77.16
2022-12-18T23:03:16.565Z,77.23
2022-12-18T23:05:48.313Z,77.13
2022-12-18T23:08:20.951Z,76.98
2022-12-18T23:10:54.989Z,77.08
2022-12-18T23:20:00.893Z,77.05
2022-12-18T23:22:33.369Z,77.07
2022-12-18T23:25:03.880Z,77.17
2022-12-18T23:27:34.418Z,76.87
2022-12-18T23:30:05.580Z,77.04
2022-12-18T23:32:38.024Z,76.93
2022-12-18T23:35:10.044Z,76.95
2022-12-18T23:37:58.957Z,77.00
2022-12-18T23:40:30.806Z,76.96
2022-12-18T23:43:01.588Z,77.01
2022-12-18T23:45:31.991Z,77.05
2022-12-18T23:48:02.430Z,76.96
2022-12-18T23:50:32.775Z,77.05
2022-12-18T23:53:05.603Z,76.93
2022-12-18T23:55:41.300Z,76.93
2022-12-18T23:58:18.787Z,76.94
